createdAt,value
2019-06-01T00:00:11.818Z,15.20
2019-06-01T00:02:38.697Z,15.20
2019-06-01T00:05:07.731Z,15.10
2019-06-01T00:07:36.554Z,15.00
2019-06-01T00:10:07.177Z,14.90
2019-06-01T00:12:50.000Z,14.90
2019-06-01T00:15:07.795Z,14.80
2019-06-01T00:17:36.731Z,14.80
2019-06-01T00:20:05.839Z,14.80
2019-06-01T00:22:34.479Z,14.80
2019-06-01T00:25:03.707Z,14.70
2019-06-01T00:27:32.429Z,14.70
2019-06-01T00:30:01.063Z,14.60
2019-06-01T00:32:30.075Z,14.60
2019-06-01T00:34:58.732Z,14.60
2019-06-01T00:37:28.995Z,14.50
2019-06-01T00:39:57.554Z,14.50
2019-06-01T00:42:26.147Z,14.40
2019-06-01T00:44:54.789Z,14.40
2019-06-01T00:47:23.351Z,14.40
2019-06-01T00:49:53.120Z,14.30
2019-06-01T00:52:21.795Z,14.30
2019-06-01T00:54:51.686Z,14.30
2019-06-01T00:57:22.256Z,14.20
2019-06-01T00:59:50.653Z,14.20
2019-06-01T01:02:19.631Z,14.20
2019-06-01T01:04:52.489Z,14.20
2019-06-01T01:07:21.525Z,14.20
2019-06-01T01:09:50.841Z,14.10
2019-06-01T01:12:19.483Z,14.10
2019-06-01T01:14:49.161Z,14.10
2019-06-01T01:17:17.880Z,14.10
2019-06-01T01:19:47.613Z,14.00
2019-06-01T01:22:16.579Z,14.00
2019-06-01T01:24:46.315Z,14.00
2019-06-01T01:27:14.940Z,14.00
2019-06-01T01:29:43.861Z,13.90
2019-06-01T01:32:12.428Z,13.90
2019-06-01T01:34:41.103Z,13.90
2019-06-01T01:37:09.737Z,14.00
2019-06-01T01:39:38.611Z,13.90
2019-06-01T01:42:07.368Z,13.90
2019-06-01T01:44:35.995Z,13.90
2019-06-01T01:47:04.648Z,13.90
2019-06-01T01:49:33.328Z,13.80
2019-06-01T01:52:02.307Z,13.80
2019-06-01T01:54:30.896Z,13.70
2019-06-01T01:56:59.822Z,13.70
2019-06-01T01:59:28.374Z,13.70
2019-06-01T02:01:56.930Z,13.70
2019-06-01T02:04:25.610Z,13.60
2019-06-01T02:06:54.552Z,13.60
2019-06-01T02:09:23.579Z,13.60
2019-06-01T02:11:53.211Z,13.60
2019-06-01T02:14:22.201Z,13.50
2019-06-01T02:16:51.908Z,13.50
2019-06-01T02:19:20.953Z,13.50
2019-06-01T02:21:49.555Z,13.40
2019-06-01T02:24:18.118Z,13.40
2019-06-01T02:26:46.756Z,13.40
2019-06-01T02:29:15.485Z,13.30
2019-06-01T02:31:44.482Z,13.30
2019-06-01T02:34:13.046Z,13.30
2019-06-01T02:36:42.236Z,13.30
2019-06-01T02:39:13.004Z,13.30
2019-06-01T02:41:41.925Z,13.20
2019-06-01T02:44:10.527Z,13.20
2019-06-01T02:46:39.160Z,13.20
2019-06-01T02:49:07.983Z,13.20
2019-06-01T02:51:37.036Z,13.10
2019-06-01T02:54:06.345Z,13.10
2019-06-01T02:56:35.243Z,13.10
2019-06-01T02:59:04.458Z,13.10
2019-06-01T03:01:38.305Z,13.20
2019-06-01T03:04:09.721Z,13.10
2019-06-01T03:06:41.103Z,13.10
2019-06-01T03:09:10.494Z,13.10
2019-06-01T03:11:41.492Z,13.10
2019-06-01T03:14:12.847Z,13.10
2019-06-01T03:16:43.444Z,13.20
2019-06-01T03:19:14.013Z,13.10
2019-06-01T03:21:45.679Z,13.10
2019-06-01T03:24:14.384Z,13.10
2019-06-01T03:26:45.989Z,13.00
2019-06-01T03:29:17.296Z,13.00
2019-06-01T03:31:46.271Z,13.10
2019-06-01T03:34:14.976Z,13.00
2019-06-01T03:36:44.172Z,13.00
2019-06-01T03:39:13.184Z,13.00
2019-06-01T03:41:42.255Z,13.10
2019-06-01T03:44:10.815Z,13.10
2019-06-01T03:46:39.516Z,13.10
2019-06-01T03:49:08.178Z,13.10
2019-06-01T03:51:36.924Z,13.10
2019-06-01T03:54:06.858Z,13.20
2019-06-01T03:56:35.787Z,13.20
2019-06-01T03:59:05.064Z,13.20
2019-06-01T04:01:33.919Z,13.20
2019-06-01T04:04:03.088Z,13.20
2019-06-01T04:06:31.735Z,13.20
2019-06-01T04:09:01.809Z,13.30
2019-06-01T04:11:31.003Z,13.30
2019-06-01T04:13:59.718Z,13.30
2019-06-01T04:16:28.292Z,13.30
2019-06-01T04:18:58.397Z,13.40
2019-06-01T04:21:27.383Z,13.50
2019-06-01T04:23:56.119Z,13.50
2019-06-01T04:26:24.965Z,13.60
2019-06-01T04:28:53.550Z,13.60
2019-06-01T04:31:22.212Z,13.70
2019-06-01T04:33:50.877Z,13.70
2019-06-01T04:36:19.537Z,13.80
2019-06-01T04:38:48.390Z,13.80
2019-06-01T04:41:17.019Z,13.90
2019-06-01T04:43:45.963Z,14.00
2019-06-01T04:46:14.859Z,14.00
2019-06-01T04:48:43.579Z,14.10
2019-06-01T04:51:13.350Z,14.20
2019-06-01T04:53:42.254Z,14.30
2019-06-01T04:56:11.237Z,14.40
2019-06-01T04:58:39.892Z,14.50
2019-06-01T05:01:08.995Z,14.50
2019-06-01T05:03:38.006Z,14.60
2019-06-01T05:06:07.238Z,14.80
2019-06-01T05:08:36.403Z,14.90
2019-06-01T05:11:06.835Z,15.00
2019-06-01T05:13:35.411Z,15.10
2019-06-01T05:16:04.143Z,15.20
2019-06-01T05:18:33.088Z,15.30
2019-06-01T05:21:01.715Z,15.50
2019-06-01T05:23:30.379Z,15.60
2019-06-01T05:25:59.144Z,15.70
2019-06-01T05:28:27.810Z,15.80
2019-06-01T05:30:56.505Z,15.90
2019-06-01T05:33:36.981Z,16.00
2019-06-01T05:35:55.824Z,16.10
2019-06-01T05:38:24.446Z,16.30
2019-06-01T05:40:53.043Z,16.30
2019-06-01T05:43:21.736Z,16.40
2019-06-01T05:45:50.523Z,16.50
2019-06-01T05:48:24.805Z,16.70
2019-06-01T05:50:49.576Z,16.70
2019-06-01T05:53:19.860Z,16.80
2019-06-01T05:55:48.644Z,16.80
2019-06-01T05:58:17.349Z,16.90
2019-06-01T06:00:46.573Z,17.00
2019-06-01T06:03:19.015Z,17.10
2019-06-01T06:05:45.446Z,17.30
2019-06-01T06:08:14.478Z,17.60
2019-06-01T06:10:43.564Z,18.10
2019-06-01T06:13:13.321Z,18.30
2019-06-01T06:15:42.467Z,18.50
2019-06-01T06:18:11.655Z,18.60
2019-06-01T06:20:40.400Z,18.60
2019-06-01T06:23:09.057Z,18.50
2019-06-01T06:25:39.610Z,18.50
2019-06-01T06:28:08.035Z,18.70
2019-06-01T06:30:37.070Z,18.80
2019-06-01T06:33:05.632Z,18.90
2019-06-01T06:35:34.378Z,19.00
2019-06-01T06:38:03.306Z,19.30
2019-06-01T06:40:32.009Z,19.70
2019-06-01T06:43:00.707Z,20.10
2019-06-01T06:45:30.423Z,21.00
2019-06-01T06:47:59.022Z,22.20
2019-06-01T06:50:28.155Z,22.90
2019-06-01T06:52:56.820Z,24.50
2019-06-01T06:55:26.112Z,26.50
2019-06-01T06:57:55.275Z,27.80
2019-06-01T07:00:24.937Z,28.90
2019-06-01T07:02:53.654Z,30.50
2019-06-01T07:05:23.382Z,31.90
2019-06-01T07:07:52.201Z,33.30
2019-06-01T07:10:22.077Z,34.30
2019-06-01T07:12:51.144Z,34.30
2019-06-01T07:15:19.828Z,34.80
2019-06-01T07:17:48.858Z,34.30
2019-06-01T07:20:17.587Z,35.40
2019-06-01T07:22:46.267Z,36.60
2019-06-01T07:25:15.126Z,37.80
2019-06-01T07:27:43.683Z,38.30
2019-06-01T07:30:12.806Z,38.30
2019-06-01T07:32:41.380Z,37.30
2019-06-01T07:35:11.163Z,37.00
2019-06-01T07:37:39.830Z,37.20
2019-06-01T07:40:13.398Z,36.70
2019-06-01T07:42:39.519Z,37.80
2019-06-01T07:45:08.857Z,39.00
2019-06-01T07:47:37.752Z,39.30
2019-06-01T07:50:06.610Z,37.90
2019-06-01T07:52:35.536Z,37.20
2019-06-01T07:55:05.643Z,36.50
2019-06-01T07:57:34.203Z,36.30
2019-06-01T08:00:04.311Z,36.30
2019-06-01T08:02:33.137Z,36.20
2019-06-01T08:05:01.865Z,36.00
2019-06-01T08:07:31.304Z,36.70
2019-06-01T08:10:00.154Z,37.70
2019-06-01T08:12:29.657Z,37.80
2019-06-01T08:14:58.408Z,37.20
2019-06-01T08:17:28.110Z,38.10
2019-06-01T08:19:56.672Z,38.30
2019-06-01T08:22:25.973Z,38.30
2019-06-01T08:24:54.723Z,39.10
2019-06-01T08:27:24.378Z,40.00
2019-06-01T08:29:53.056Z,40.80
2019-06-01T08:32:22.673Z,41.10
2019-06-01T08:35:07.360Z,40.90
2019-06-01T08:37:21.687Z,40.40
2019-06-01T08:39:50.255Z,38.50
2019-06-01T08:42:18.855Z,38.40
2019-06-01T08:44:47.551Z,39.10
2019-06-01T08:47:16.219Z,39.70
2019-06-01T08:49:44.882Z,40.30
2019-06-01T08:52:13.811Z,40.20
2019-06-01T08:54:42.532Z,39.70
2019-06-01T08:57:11.187Z,40.10
2019-06-01T08:59:40.076Z,40.90
2019-06-01T09:02:08.853Z,41.50
2019-06-01T09:04:37.483Z,41.60
2019-06-01T09:07:06.164Z,41.60
2019-06-01T09:09:35.270Z,41.60
2019-06-01T09:12:04.564Z,41.70
2019-06-01T09:14:33.489Z,42.00
2019-06-01T09:17:02.509Z,42.40
2019-06-01T09:19:31.619Z,41.70
2019-06-01T09:22:00.236Z,41.00
2019-06-01T09:24:29.740Z,41.10
2019-06-01T09:26:58.983Z,41.40
2019-06-01T09:29:27.843Z,42.10
2019-06-01T09:31:56.538Z,41.90
2019-06-01T09:34:26.172Z,42.20
2019-06-01T09:36:55.645Z,42.30
2019-06-01T09:39:24.413Z,42.00
2019-06-01T09:41:53.239Z,42.00
2019-06-01T09:44:21.919Z,41.70
2019-06-01T09:46:50.551Z,41.50
2019-06-01T09:49:19.182Z,42.00
2019-06-01T09:51:48.159Z,42.30
2019-06-01T09:54:17.089Z,42.80
2019-06-01T09:56:45.740Z,42.80
2019-06-01T09:59:14.380Z,42.60
2019-06-01T10:01:43.115Z,42.70
2019-06-01T10:04:11.757Z,42.70
2019-06-01T10:06:40.428Z,41.90
2019-06-01T10:09:09.677Z,41.80
2019-06-01T10:11:38.255Z,41.80
2019-06-01T10:14:07.055Z,41.40
2019-06-01T10:16:36.792Z,40.90
2019-06-01T10:19:05.579Z,40.30
2019-06-01T10:21:34.165Z,40.70
2019-06-01T10:24:02.723Z,40.80
2019-06-01T10:26:31.408Z,41.40
2019-06-01T10:29:00.151Z,42.00
2019-06-01T10:31:28.807Z,42.70
2019-06-01T10:33:57.794Z,41.50
2019-06-01T10:36:26.615Z,40.70
2019-06-01T10:38:55.587Z,40.50
2019-06-01T10:41:24.215Z,39.80
2019-06-01T10:43:52.882Z,38.70
2019-06-01T10:46:21.527Z,38.70
2019-06-01T10:48:50.109Z,38.90
2019-06-01T10:51:19.008Z,39.30
2019-06-01T10:53:47.656Z,39.30
2019-06-01T10:56:16.238Z,39.80
2019-06-01T10:58:59.206Z,40.30
2019-06-01T11:01:15.139Z,40.50
2019-06-01T11:03:43.695Z,41.20
2019-06-01T11:06:12.643Z,40.90
2019-06-01T11:08:41.304Z,40.90
2019-06-01T11:11:10.013Z,41.10
2019-06-01T11:13:39.058Z,40.20
2019-06-01T11:16:07.950Z,40.10
2019-06-01T11:18:37.512Z,38.60
2019-06-01T11:21:06.483Z,38.20
2019-06-01T11:23:35.570Z,38.20
2019-06-01T11:26:04.455Z,37.70
2019-06-01T11:28:33.835Z,37.60
2019-06-01T11:31:02.775Z,37.20
2019-06-01T11:33:31.456Z,37.20
2019-06-01T11:36:00.451Z,37.00
2019-06-01T11:38:29.131Z,36.90
2019-06-01T11:40:58.023Z,36.60
2019-06-01T11:43:27.055Z,35.70
2019-06-01T11:45:55.687Z,34.90
2019-06-01T11:48:24.595Z,34.10
2019-06-01T11:50:53.294Z,33.20
2019-06-01T11:53:21.980Z,32.60
2019-06-01T11:55:50.719Z,32.20
2019-06-01T11:58:19.267Z,31.70
2019-06-01T12:00:48.290Z,31.30
2019-06-01T12:03:17.970Z,31.00
2019-06-01T12:05:46.631Z,30.80
2019-06-01T12:08:15.613Z,30.60
2019-06-01T12:10:45.807Z,30.50
2019-06-01T12:13:14.435Z,30.60
2019-06-01T12:15:44.178Z,30.70
2019-06-01T12:18:13.138Z,30.00
2019-06-01T12:20:42.765Z,29.80
2019-06-01T12:23:11.564Z,29.90
2019-06-01T12:25:40.205Z,30.10
2019-06-01T12:28:08.707Z,30.30
2019-06-01T12:30:37.497Z,30.40
2019-06-01T12:33:06.235Z,30.20
2019-06-01T12:35:35.358Z,29.80
2019-06-01T12:38:06.869Z,29.70
2019-06-01T12:40:34.114Z,30.00
2019-06-01T12:43:02.747Z,30.00
2019-06-01T12:45:31.323Z,30.00
2019-06-01T12:48:00.213Z,30.30
2019-06-01T12:50:28.845Z,30.10
2019-06-01T12:52:59.155Z,30.20
2019-06-01T12:55:28.001Z,30.40
2019-06-01T12:57:56.587Z,30.40
2019-06-01T13:00:25.514Z,30.30
2019-06-01T13:03:03.358Z,30.40
2019-06-01T13:05:24.794Z,30.50
2019-06-01T13:08:01.694Z,30.50
2019-06-01T13:10:24.107Z,30.30
2019-06-01T13:12:52.743Z,30.20
2019-06-01T13:15:21.503Z,30.30
2019-06-01T13:17:51.449Z,30.40
2019-06-01T13:20:20.504Z,30.40
2019-06-01T13:22:49.980Z,30.40
2019-06-01T13:25:18.905Z,30.20
2019-06-01T13:27:48.832Z,30.00
2019-06-01T13:30:17.603Z,29.90
2019-06-01T13:32:46.494Z,29.90
2019-06-01T13:35:15.529Z,30.00
2019-06-01T13:37:44.526Z,30.10
2019-06-01T13:40:13.842Z,30.10
2019-06-01T13:42:44.852Z,30.00
2019-06-01T13:45:14.115Z,30.00
2019-06-01T13:47:43.403Z,30.10
2019-06-01T13:50:12.417Z,30.20
2019-06-01T13:52:41.011Z,30.20
2019-06-01T13:55:10.439Z,30.20
2019-06-01T13:57:39.696Z,30.10
2019-06-01T14:00:09.124Z,30.20
2019-06-01T14:02:37.844Z,30.10
2019-06-01T14:05:08.052Z,30.00
2019-06-01T14:07:37.000Z,30.00
2019-06-01T14:10:07.007Z,29.90
2019-06-01T14:12:35.739Z,29.90
2019-06-01T14:15:06.929Z,30.00
2019-06-01T14:17:35.728Z,30.00
2019-06-01T14:20:08.736Z,30.10
2019-06-01T14:22:37.375Z,30.10
2019-06-01T14:25:14.331Z,30.20
2019-06-01T14:27:39.196Z,30.20
2019-06-01T14:30:09.201Z,30.40
2019-06-01T14:32:37.817Z,30.70
2019-06-01T14:35:07.338Z,30.70
2019-06-01T14:37:35.916Z,30.60
2019-06-01T14:40:06.545Z,30.50
2019-06-01T14:42:35.247Z,30.50
2019-06-01T14:45:05.828Z,30.30
2019-06-01T14:47:34.437Z,30.30
2019-06-01T14:50:04.902Z,30.30
2019-06-01T14:52:35.249Z,30.40
2019-06-01T14:55:05.561Z,30.20
2019-06-01T14:57:34.289Z,30.00
2019-06-01T15:00:03.407Z,30.00
2019-06-01T15:02:32.035Z,30.00
2019-06-01T15:05:00.928Z,30.00
2019-06-01T15:07:29.579Z,29.90
2019-06-01T15:09:58.472Z,29.90
2019-06-01T15:12:27.599Z,30.00
2019-06-01T15:14:57.502Z,30.10
2019-06-01T15:17:26.326Z,30.20
2019-06-01T15:19:56.082Z,30.20
2019-06-01T15:22:25.186Z,30.20
2019-06-01T15:24:54.255Z,30.20
2019-06-01T15:27:22.959Z,30.20
2019-06-01T15:29:52.708Z,30.20
2019-06-01T15:32:21.463Z,30.20
2019-06-01T15:34:50.556Z,30.20
2019-06-01T15:37:19.206Z,30.20
2019-06-01T15:39:47.867Z,30.20
2019-06-01T15:42:16.499Z,29.90
2019-06-01T15:44:45.067Z,29.80
2019-06-01T15:47:13.991Z,29.70
2019-06-01T15:49:42.925Z,29.80
2019-06-01T15:52:11.632Z,29.70
2019-06-01T15:54:40.490Z,29.60
2019-06-01T15:57:09.047Z,29.40
2019-06-01T15:59:37.611Z,29.20
2019-06-01T16:02:06.280Z,29.20
2019-06-01T16:04:34.983Z,29.30
2019-06-01T16:07:03.651Z,29.30
2019-06-01T16:09:42.664Z,29.40
2019-06-01T16:12:03.752Z,29.50
2019-06-01T16:14:32.794Z,29.50
2019-06-01T16:17:02.994Z,29.50
2019-06-01T16:19:32.329Z,29.50
2019-06-01T16:22:00.983Z,29.50
2019-06-01T16:24:29.899Z,29.50
2019-06-01T16:26:58.557Z,29.50
2019-06-01T16:29:27.397Z,29.40
2019-06-01T16:31:56.669Z,29.30
2019-06-01T16:34:25.763Z,29.30
2019-06-01T16:36:54.819Z,29.30
2019-06-01T16:39:23.474Z,29.20
2019-06-01T16:41:52.428Z,29.20
2019-06-01T16:44:21.297Z,29.10
2019-06-01T16:46:49.923Z,29.00
2019-06-01T16:49:18.600Z,28.90
2019-06-01T16:51:51.790Z,28.80
2019-06-01T16:54:20.811Z,28.70
2019-06-01T16:56:49.765Z,28.60
2019-06-01T16:59:18.663Z,28.60
2019-06-01T17:01:48.905Z,28.50
2019-06-01T17:04:17.592Z,28.40
2019-06-01T17:06:47.606Z,28.40
2019-06-01T17:09:16.318Z,28.50
2019-06-01T17:11:45.359Z,28.50
2019-06-01T17:14:15.695Z,28.60
2019-06-01T17:16:44.299Z,28.60
2019-06-01T17:19:13.387Z,28.60
2019-06-01T17:21:42.053Z,28.50
2019-06-01T17:24:11.140Z,28.50
2019-06-01T17:26:40.131Z,28.50
2019-06-01T17:29:08.776Z,28.50
2019-06-01T17:31:51.389Z,28.40
2019-06-01T17:34:08.715Z,28.40
2019-06-01T17:36:37.515Z,28.30
2019-06-01T17:39:08.160Z,28.30
2019-06-01T17:41:36.734Z,28.20
2019-06-01T17:44:06.822Z,28.10
2019-06-01T17:46:52.344Z,28.00
2019-06-01T17:49:06.449Z,27.90
2019-06-01T17:51:35.183Z,27.80
2019-06-01T17:54:06.342Z,27.70
2019-06-01T17:56:34.203Z,27.70
2019-06-01T17:59:03.368Z,27.60
2019-06-01T18:01:32.403Z,27.50
2019-06-01T18:04:01.736Z,27.30
2019-06-01T18:06:30.632Z,27.20
2019-06-01T18:08:59.344Z,27.10
2019-06-01T18:11:28.443Z,27.00
2019-06-01T18:13:57.003Z,26.90
2019-06-01T18:16:25.751Z,26.80
2019-06-01T18:18:55.899Z,26.80
2019-06-01T18:21:26.384Z,26.70
2019-06-01T18:23:55.382Z,26.70
2019-06-01T18:26:24.012Z,26.60
2019-06-01T18:28:52.771Z,26.60
2019-06-01T18:31:23.968Z,26.50
2019-06-01T18:33:53.572Z,26.40
2019-06-01T18:36:22.526Z,26.20
2019-06-01T18:38:51.455Z,26.20
2019-06-01T18:41:20.360Z,26.00
2019-06-01T18:43:49.019Z,25.90
2019-06-01T18:46:18.199Z,25.80
2019-06-01T18:48:46.893Z,25.80
2019-06-01T18:51:15.913Z,25.80
2019-06-01T18:53:45.008Z,25.80
2019-06-01T18:56:14.375Z,25.80
2019-06-01T18:58:43.111Z,25.70
2019-06-01T19:01:12.554Z,25.60
2019-06-01T19:03:41.358Z,25.40
2019-06-01T19:06:09.996Z,25.30
2019-06-01T19:08:38.661Z,25.10
2019-06-01T19:11:08.372Z,25.10
2019-06-01T19:13:37.057Z,25.00
2019-06-01T19:16:05.907Z,24.80
2019-06-01T19:18:34.664Z,24.60
2019-06-01T19:21:03.324Z,24.40
2019-06-01T19:23:31.881Z,24.30
2019-06-01T19:26:00.912Z,24.10
2019-06-01T19:28:29.893Z,23.90
2019-06-01T19:30:58.645Z,23.70
2019-06-01T19:33:27.286Z,23.60
2019-06-01T19:35:57.210Z,23.50
2019-06-01T19:38:27.480Z,23.40
2019-06-01T19:40:56.123Z,23.40
2019-06-01T19:43:25.076Z,23.40
2019-06-01T19:45:53.763Z,23.30
2019-06-01T19:48:22.432Z,23.20
2019-06-01T19:50:50.987Z,23.10
2019-06-01T19:53:19.655Z,23.00
2019-06-01T19:55:48.350Z,22.90
2019-06-01T19:58:18.824Z,22.90
2019-06-01T20:00:47.395Z,22.80
2019-06-01T20:03:20.015Z,22.60
2019-06-01T20:05:46.565Z,22.50
2019-06-01T20:08:16.176Z,22.40
2019-06-01T20:10:44.891Z,22.20
2019-06-01T20:13:13.495Z,22.20
2019-06-01T20:15:42.291Z,22.10
2019-06-01T20:18:12.673Z,22.00
2019-06-01T20:20:41.572Z,21.90
2019-06-01T20:23:11.267Z,21.70
2019-06-01T20:25:40.048Z,21.70
2019-06-01T20:28:08.605Z,21.60
2019-06-01T20:30:37.450Z,21.60
2019-06-01T20:33:06.090Z,21.50
2019-06-01T20:35:34.828Z,21.40
2019-06-01T20:38:04.335Z,21.30
2019-06-01T20:40:32.899Z,21.10
2019-06-01T20:43:01.565Z,21.10
2019-06-01T20:45:30.484Z,21.00
2019-06-01T20:47:59.139Z,21.00
2019-06-01T20:50:27.699Z,20.80
2019-06-01T20:52:56.355Z,20.70
2019-06-01T20:55:24.937Z,20.70
2019-06-01T20:57:53.581Z,20.60
2019-06-01T21:00:23.785Z,20.40
2019-06-01T21:02:52.418Z,20.40
2019-06-01T21:05:22.097Z,20.30
2019-06-01T21:07:50.801Z,20.20
2019-06-01T21:10:20.572Z,20.20
2019-06-01T21:12:49.194Z,20.20
2019-06-01T21:15:19.182Z,20.10
2019-06-01T21:17:50.128Z,20.10
2019-06-01T21:20:25.376Z,20.10
2019-06-01T21:22:49.188Z,19.90
2019-06-01T21:25:18.853Z,19.90
2019-06-01T21:27:47.971Z,19.80
2019-06-01T21:30:18.313Z,19.70
2019-06-01T21:32:47.045Z,19.60
2019-06-01T21:35:17.117Z,19.50
2019-06-01T21:37:45.928Z,19.40
2019-06-01T21:40:15.291Z,19.40
2019-06-01T21:43:00.344Z,19.30
2019-06-01T21:45:15.511Z,19.20
2019-06-01T21:47:44.214Z,19.20
2019-06-01T21:50:18.118Z,19.10
2019-06-01T21:52:47.295Z,19.10
2019-06-01T21:55:16.163Z,19.00
2019-06-01T21:57:44.714Z,18.90
2019-06-01T22:00:29.589Z,18.90
2019-06-01T22:02:58.176Z,18.80
2019-06-01T22:05:27.313Z,18.70
2019-06-01T22:07:56.337Z,18.70
2019-06-01T22:10:25.742Z,18.60
2019-06-01T22:12:54.447Z,18.60
2019-06-01T22:15:23.811Z,18.50
2019-06-01T22:17:52.900Z,18.50
2019-06-01T22:20:21.888Z,18.50
2019-06-01T22:22:50.994Z,18.50
2019-06-01T22:25:20.559Z,18.40
2019-06-01T22:27:49.941Z,18.30
2019-06-01T22:30:20.225Z,18.30
2019-06-01T22:32:49.224Z,18.30
2019-06-01T22:35:18.708Z,18.20
2019-06-01T22:37:47.551Z,18.20
2019-06-01T22:40:16.303Z,18.10
2019-06-01T22:42:45.283Z,18.10
2019-06-01T22:45:14.484Z,18.00
2019-06-01T22:47:43.119Z,18.10
2019-06-01T22:50:13.327Z,18.10
2019-06-01T22:52:44.463Z,18.10
2019-06-01T22:55:13.629Z,18.00
2019-06-01T22:57:43.366Z,17.90
2019-06-01T23:00:12.347Z,17.90
2019-06-01T23:02:40.943Z,17.80
2019-06-01T23:05:09.866Z,17.70
2019-06-01T23:07:38.791Z,17.70
2019-06-01T23:10:07.819Z,17.70
2019-06-01T23:12:36.781Z,17.60
2019-06-01T23:15:07.274Z,17.50
2019-06-01T23:17:35.946Z,17.50
2019-06-01T23:20:06.954Z,17.40
2019-06-01T23:22:35.591Z,17.30
2019-06-01T23:25:05.219Z,17.20
2019-06-01T23:27:33.785Z,17.20
2019-06-01T23:30:02.408Z,17.00
2019-06-01T23:32:31.000Z,17.00
2019-06-01T23:34:59.662Z,16.90
2019-06-01T23:37:28.870Z,16.90
2019-06-01T23:39:57.924Z,16.90
2019-06-01T23:42:26.785Z,16.80
2019-06-01T23:44:55.459Z,16.80
2019-06-01T23:47:25.727Z,16.80
2019-06-01T23:49:54.487Z,16.80
2019-06-01T23:52:23.563Z,16.70
2019-06-01T23:54:52.709Z,16.70
2019-06-01T23:57:21.223Z,16.60
2019-06-01T23:59:50.104Z,16.60
